Terminal Aerodrome Forecast
Issued by NWS

Home | Current Version | Previous Version | Text Only | Print | Product List | Glossary On
Versions: 1 2 3 4 5 6 7 8 9 10 11 12 13 14 15 16 17 18 19
149
FTUS46 KMTR 212320
TAFMRY
TAF
KMRY 212320Z 2200/2224 21005KT P6SM BKN050 OVC070
     FM220200 15007KT P6SM -RA OVC040
     FM220600 16008G20KT 3SM RA OVC025 WS015/18050KT
     FM221200 14012G22KT 6SM -RA OVC030
     FM221700 15008KT P6SM -SHRA OVC040=

USA.gov is the U.S. government's official web portal to all federal, state and local government web resources and services.